sensor_id;sensor_type;location;lat;lon;timestamp;pressure;altitude;pressure_sealevel;temperature;humidity
43420;BME280;29017;51.514;-0.178;2023-12-28T00:00:57;99922.50;;;12.78;81.79
43420;BME280;29017;51.514;-0.178;2023-12-28T00:03:24;99910.13;;;12.78;82.52
43420;BME280;29017;51.514;-0.178;2023-12-28T00:05:51;99929.03;;;12.82;82.17
43420;BME280;29017;51.514;-0.178;2023-12-28T00:08:18;99920.94;;;12.83;81.89
43420;BME280;29017;51.514;-0.178;2023-12-28T00:10:45;99932.34;;;12.91;82.43
43420;BME280;29017;51.514;-0.178;2023-12-28T00:13:11;99946.19;;;12.93;82.29
43420;BME280;29017;51.514;-0.178;2023-12-28T00:15:38;99925.13;;;12.99;82.76
43420;BME280;29017;51.514;-0.178;2023-12-28T00:18:05;99942.81;;;12.99;81.84
43420;BME280;29017;51.514;-0.178;2023-12-28T00:20:32;99936.13;;;13.03;83.19
43420;BME280;29017;51.514;-0.178;2023-12-28T00:22:59;99934.50;;;13.02;82.02
43420;BME280;29017;51.514;-0.178;2023-12-28T00:25:26;99940.03;;;13.07;82.47
43420;BME280;29017;51.514;-0.178;2023-12-28T00:27:54;99954.03;;;13.07;84.02
43420;BME280;29017;51.514;-0.178;2023-12-28T00:30:21;99946.13;;;13.07;87.04
43420;BME280;29017;51.514;-0.178;2023-12-28T00:32:48;99929.59;;;12.99;88.07
43420;BME280;29017;51.514;-0.178;2023-12-28T00:35:15;99932.56;;;12.89;89.19
43420;BME280;29017;51.514;-0.178;2023-12-28T00:37:41;99936.78;;;12.83;90.21
43420;BME280;29017;51.514;-0.178;2023-12-28T00:40:09;99930.03;;;12.81;90.80
43420;BME280;29017;51.514;-0.178;2023-12-28T00:42:35;99923.50;;;12.77;91.29
43420;BME280;29017;51.514;-0.178;2023-12-28T00:45:02;99908.88;;;12.74;91.91
43420;BME280;29017;51.514;-0.178;2023-12-28T00:47:31;99939.16;;;12.78;91.67
43420;BME280;29017;51.514;-0.178;2023-12-28T00:49:58;99936.28;;;12.73;90.93
43420;BME280;29017;51.514;-0.178;2023-12-28T00:52:25;99948.28;;;12.76;90.56
43420;BME280;29017;51.514;-0.178;2023-12-28T00:54:52;99936.72;;;12.77;90.34
43420;BME280;29017;51.514;-0.178;2023-12-28T00:57:24;99946.09;;;12.79;90.71
43420;BME280;29017;51.514;-0.178;2023-12-28T00:59:51;99936.16;;;12.81;91.33
43420;BME280;29017;51.514;-0.178;2023-12-28T01:02:17;99957.91;;;12.83;90.07
43420;BME280;29017;51.514;-0.178;2023-12-28T01:04:44;99948.16;;;12.84;90.38
43420;BME280;29017;51.514;-0.178;2023-12-28T01:07:11;99958.50;;;12.85;90.44
43420;BME280;29017;51.514;-0.178;2023-12-28T01:09:38;99960.97;;;12.87;89.70
43420;BME280;29017;51.514;-0.178;2023-12-28T01:12:05;99946.59;;;12.90;88.57
43420;BME280;29017;51.514;-0.178;2023-12-28T01:14:32;99956.94;;;12.91;88.27
43420;BME280;29017;51.514;-0.178;2023-12-28T01:16:59;99958.22;;;12.95;88.87
43420;BME280;29017;51.514;-0.178;2023-12-28T01:19:26;99952.94;;;12.95;88.29
43420;BME280;29017;51.514;-0.178;2023-12-28T01:21:53;99950.72;;;12.99;88.48
43420;BME280;29017;51.514;-0.178;2023-12-28T01:24:20;99944.63;;;12.98;87.82
43420;BME280;29017;51.514;-0.178;2023-12-28T01:26:47;99950.53;;;13.00;87.60
43420;BME280;29017;51.514;-0.178;2023-12-28T01:29:13;99938.53;;;12.98;87.05
43420;BME280;29017;51.514;-0.178;2023-12-28T01:31:40;99934.06;;;12.98;87.79
43420;BME280;29017;51.514;-0.178;2023-12-28T01:34:07;99939.34;;;12.98;86.26
43420;BME280;29017;51.514;-0.178;2023-12-28T01:36:36;99953.53;;;12.97;86.07
43420;BME280;29017;51.514;-0.178;2023-12-28T01:39:03;99953.94;;;12.94;85.74
43420;BME280;29017;51.514;-0.178;2023-12-28T01:41:34;99940.53;;;12.96;86.73
43420;BME280;29017;51.514;-0.178;2023-12-28T01:44:04;99942.81;;;12.99;86.46
43420;BME280;29017;51.514;-0.178;2023-12-28T01:46:31;99953.19;;;13.00;87.07
43420;BME280;29017;51.514;-0.178;2023-12-28T01:48:58;99951.97;;;13.03;87.28
43420;BME280;29017;51.514;-0.178;2023-12-28T01:51:26;99944.69;;;13.05;88.96
43420;BME280;29017;51.514;-0.178;2023-12-28T01:53:53;99949.16;;;13.04;89.83
43420;BME280;29017;51.514;-0.178;2023-12-28T01:56:20;99957.44;;;13.01;89.51
43420;BME280;29017;51.514;-0.178;2023-12-28T01:58:48;99960.91;;;13.02;89.98
43420;BME280;29017;51.514;-0.178;2023-12-28T02:01:15;99958.47;;;13.00;90.48
43420;BME280;29017;51.514;-0.178;2023-12-28T02:03:44;99957.81;;;12.98;91.73
43420;BME280;29017;51.514;-0.178;2023-12-28T02:06:11;99960.84;;;12.95;91.99
43420;BME280;29017;51.514;-0.178;2023-12-28T02:08:42;99967.13;;;12.94;92.46
43420;BME280;29017;51.514;-0.178;2023-12-28T02:11:09;99967.13;;;12.94;92.49
43420;BME280;29017;51.514;-0.178;2023-12-28T02:13:39;99963.44;;;12.89;92.54
43420;BME280;29017;51.514;-0.178;2023-12-28T02:16:10;99972.78;;;12.91;92.91
43420;BME280;29017;51.514;-0.178;2023-12-28T02:18:45;99980.09;;;12.89;92.72
43420;BME280;29017;51.514;-0.178;2023-12-28T02:21:14;99979.06;;;12.90;92.96
43420;BME280;29017;51.514;-0.178;2023-12-28T02:23:51;99994.91;;;12.90;93.31
43420;BME280;29017;51.514;-0.178;2023-12-28T02:26:18;99998.75;;;12.88;92.18
43420;BME280;29017;51.514;-0.178;2023-12-28T02:28:45;100014.03;;;12.92;93.31
43420;BME280;29017;51.514;-0.178;2023-12-28T02:31:21;100000.19;;;12.90;92.71
43420;BME280;29017;51.514;-0.178;2023-12-28T02:34:00;99994.13;;;12.90;91.46
43420;BME280;29017;51.514;-0.178;2023-12-28T02:36:28;100002.03;;;12.90;91.34
43420;BME280;29017;51.514;-0.178;2023-12-28T02:38:56;100005.41;;;12.83;90.83
43420;BME280;29017;51.514;-0.178;2023-12-28T02:41:22;100009.06;;;12.82;90.84
43420;BME280;29017;51.514;-0.178;2023-12-28T02:43:51;100008.41;;;12.80;91.44
43420;BME280;29017;51.514;-0.178;2023-12-28T02:46:17;100000.72;;;12.79;91.74
43420;BME280;29017;51.514;-0.178;2023-12-28T02:48:44;100006.56;;;12.74;92.30
43420;BME280;29017;51.514;-0.178;2023-12-28T02:51:11;100008.38;;;12.74;92.57
43420;BME280;29017;51.514;-0.178;2023-12-28T02:53:43;100007.72;;;12.72;92.89
43420;BME280;29017;51.514;-0.178;2023-12-28T02:56:09;100003.00;;;12.67;93.04
43420;BME280;29017;51.514;-0.178;2023-12-28T02:58:36;100002.84;;;12.69;93.56
43420;BME280;29017;51.514;-0.178;2023-12-28T03:01:03;99997.56;;;12.69;93.81
43420;BME280;29017;51.514;-0.178;2023-12-28T03:03:30;100003.00;;;12.67;93.70
43420;BME280;29017;51.514;-0.178;2023-12-28T03:05:57;100014.22;;;12.69;93.39
43420;BME280;29017;51.514;-0.178;2023-12-28T03:08:24;100010.81;;;12.75;93.37
43420;BME280;29017;51.514;-0.178;2023-12-28T03:10:51;100009.81;;;12.76;92.44
43420;BME280;29017;51.514;-0.178;2023-12-28T03:13:19;99998.06;;;12.79;91.66
43420;BME280;29017;51.514;-0.178;2023-12-28T03:15:46;100014.72;;;12.79;91.21
43420;BME280;29017;51.514;-0.178;2023-12-28T03:18:13;100008.88;;;12.84;90.63
43420;BME280;29017;51.514;-0.178;2023-12-28T03:20:40;100010.31;;;12.86;91.17
43420;BME280;29017;51.514;-0.178;2023-12-28T03:23:07;100008.25;;;12.82;89.73
43420;BME280;29017;51.514;-0.178;2023-12-28T03:25:34;100014.34;;;12.82;89.78
43420;BME280;29017;51.514;-0.178;2023-12-28T03:28:02;99998.94;;;12.86;90.15
43420;BME280;29017;51.514;-0.178;2023-12-28T03:30:29;100002.22;;;12.88;89.15
43420;BME280;29017;51.514;-0.178;2023-12-28T03:32:56;100013.59;;;12.89;88.97
43420;BME280;29017;51.514;-0.178;2023-12-28T03:35:23;100006.09;;;12.92;88.11
43420;BME280;29017;51.514;-0.178;2023-12-28T03:37:50;100010.97;;;12.89;88.25
43420;BME280;29017;51.514;-0.178;2023-12-28T03:40:16;100015.41;;;12.88;88.09
43420;BME280;29017;51.514;-0.178;2023-12-28T03:42:45;100008.88;;;12.84;86.55
43420;BME280;29017;51.514;-0.178;2023-12-28T03:45:12;100022.44;;;12.81;86.54
43420;BME280;29017;51.514;-0.178;2023-12-28T03:47:43;100006.25;;;12.84;87.22
43420;BME280;29017;51.514;-0.178;2023-12-28T03:50:10;100012.97;;;12.86;86.69
43420;BME280;29017;51.514;-0.178;2023-12-28T03:52:36;100012.97;;;12.86;86.85
43420;BME280;29017;51.514;-0.178;2023-12-28T03:55:03;100007.06;;;12.84;86.04
43420;BME280;29017;51.514;-0.178;2023-12-28T03:57:30;100009.69;;;12.84;86.56
43420;BME280;29017;51.514;-0.178;2023-12-28T03:59:59;100005.03;;;12.86;86.86
43420;BME280;29017;51.514;-0.178;2023-12-28T04:02:26;100010.50;;;12.85;87.27
43420;BME280;29017;51.514;-0.178;2023-12-28T04:04:57;100013.13;;;12.85;86.51
43420;BME280;29017;51.514;-0.178;2023-12-28T04:07:25;100006.03;;;12.85;87.67
43420;BME280;29017;51.514;-0.178;2023-12-28T04:09:52;100016.41;;;12.87;87.48
43420;BME280;29017;51.514;-0.178;2023-12-28T04:12:19;100012.97;;;12.86;87.05
43420;BME280;29017;51.514;-0.178;2023-12-28T04:14:46;100029.63;;;12.87;87.75
43420;BME280;29017;51.514;-0.178;2023-12-28T04:17:13;100037.53;;;12.87;87.67
43420;BME280;29017;51.514;-0.178;2023-12-28T04:19:40;100033.06;;;12.88;88.15
43420;BME280;29017;51.514;-0.178;2023-12-28T04:22:07;100039.00;;;12.90;87.94
43420;BME280;29017;51.514;-0.178;2023-12-28T04:24:34;100035.34;;;12.91;88.22
43420;BME280;29017;51.514;-0.178;2023-12-28T04:27:01;100048.53;;;12.91;87.96
43420;BME280;29017;51.514;-0.178;2023-12-28T04:29:27;100049.81;;;12.95;87.60
43420;BME280;29017;51.514;-0.178;2023-12-28T04:31:54;100041.06;;;12.94;87.98
43420;BME280;29017;51.514;-0.178;2023-12-28T04:34:21;100049.44;;;12.98;87.98
43420;BME280;29017;51.514;-0.178;2023-12-28T04:36:49;100035.06;;;13.00;88.68
43420;BME280;29017;51.514;-0.178;2023-12-28T04:39:16;100039.50;;;13.00;87.59
43420;BME280;29017;51.514;-0.178;2023-12-28T04:41:42;100044.16;;;12.98;87.05
43420;BME280;29017;51.514;-0.178;2023-12-28T04:44:12;100054.72;;;12.98;88.10
43420;BME280;29017;51.514;-0.178;2023-12-28T04:46:39;100059.56;;;12.94;86.84
43420;BME280;29017;51.514;-0.178;2023-12-28T04:49:10;100051.63;;;12.94;86.79
43420;BME280;29017;51.514;-0.178;2023-12-28T04:51:41;100038.44;;;12.94;86.82
43420;BME280;29017;51.514;-0.178;2023-12-28T04:54:09;100033.78;;;12.96;86.53
43420;BME280;29017;51.514;-0.178;2023-12-28T04:56:39;100025.03;;;12.96;86.62
43420;BME280;29017;51.514;-0.178;2023-12-28T04:59:06;100029.06;;;12.92;86.84
43420;BME280;29017;51.514;-0.178;2023-12-28T05:01:33;100044.53;;;12.95;86.93
43420;BME280;29017;51.514;-0.178;2023-12-28T05:04:00;100054.91;;;12.96;85.90
43420;BME280;29017;51.514;-0.178;2023-12-28T05:06:27;100055.09;;;12.95;85.79
43420;BME280;29017;51.514;-0.178;2023-12-28T05:08:54;100052.63;;;12.93;85.81
43420;BME280;29017;51.514;-0.178;2023-12-28T05:11:21;100049.19;;;12.93;84.98
43420;BME280;29017;51.514;-0.178;2023-12-28T05:13:48;100056.72;;;12.96;85.63
43420;BME280;29017;51.514;-0.178;2023-12-28T05:16:15;100055.94;;;12.95;84.57
43420;BME280;29017;51.514;-0.178;2023-12-28T05:18:42;100062.63;;;12.98;84.34
43420;BME280;29017;51.514;-0.178;2023-12-28T05:21:09;100066.91;;;12.99;84.00
43420;BME280;29017;51.514;-0.178;2023-12-28T05:23:35;100059.44;;;13.02;84.69
43420;BME280;29017;51.514;-0.178;2023-12-28T05:26:02;100052.97;;;13.05;83.90
43420;BME280;29017;51.514;-0.178;2023-12-28T05:28:30;100069.63;;;13.05;83.73
43420;BME280;29017;51.514;-0.178;2023-12-28T05:30:57;100064.16;;;13.07;83.99
43420;BME280;29017;51.514;-0.178;2023-12-28T05:33:25;100068.59;;;13.06;82.97
43420;BME280;29017;51.514;-0.178;2023-12-28T05:35:52;100072.06;;;13.07;81.67
43420;BME280;29017;51.514;-0.178;2023-12-28T05:38:19;100067.00;;;13.05;81.26
43420;BME280;29017;51.514;-0.178;2023-12-28T05:40:46;100073.28;;;13.04;80.77
43420;BME280;29017;51.514;-0.178;2023-12-28T05:43:12;100081.56;;;13.01;80.58
43420;BME280;29017;51.514;-0.178;2023-12-28T05:45:39;100059.81;;;12.99;80.65
43420;BME280;29017;51.514;-0.178;2023-12-28T05:48:06;100085.59;;;12.97;80.05
43420;BME280;29017;51.514;-0.178;2023-12-28T05:50:34;100092.69;;;12.97;80.18
43420;BME280;29017;51.514;-0.178;2023-12-28T05:53:00;100091.25;;;12.94;79.85
43420;BME280;29017;51.514;-0.178;2023-12-28T05:55:28;100097.97;;;12.97;80.59
43420;BME280;29017;51.514;-0.178;2023-12-28T05:57:54;100114.81;;;12.96;80.14
43420;BME280;29017;51.514;-0.178;2023-12-28T06:00:22;100099.59;;;12.98;80.37
43420;BME280;29017;51.514;-0.178;2023-12-28T06:02:49;100122.00;;;13.02;80.95
43420;BME280;29017;51.514;-0.178;2023-12-28T06:05:18;100129.09;;;13.01;80.92
43420;BME280;29017;51.514;-0.178;2023-12-28T06:07:45;100118.53;;;13.01;81.29
43420;BME280;29017;51.514;-0.178;2023-12-28T06:10:12;100111.44;;;13.02;80.39
43420;BME280;29017;51.514;-0.178;2023-12-28T06:12:39;100121.81;;;13.03;81.64
43420;BME280;29017;51.514;-0.178;2023-12-28T06:15:06;100125.91;;;13.06;82.27
43420;BME280;29017;51.514;-0.178;2023-12-28T06:17:33;100128.91;;;13.03;81.71
43420;BME280;29017;51.514;-0.178;2023-12-28T06:20:00;100116.09;;;13.00;81.40
43420;BME280;29017;51.514;-0.178;2023-12-28T06:22:27;100116.28;;;12.98;80.76
43420;BME280;29017;51.514;-0.178;2023-12-28T06:24:54;100121.56;;;12.98;81.81
43420;BME280;29017;51.514;-0.178;2023-12-28T06:27:22;100105.28;;;12.95;81.29
43420;BME280;29017;51.514;-0.178;2023-12-28T06:29:50;100120.47;;;12.93;81.77
43420;BME280;29017;51.514;-0.178;2023-12-28T06:32:16;100121.47;;;12.92;80.51
43420;BME280;29017;51.514;-0.178;2023-12-28T06:34:43;100135.88;;;12.89;80.42
43420;BME280;29017;51.514;-0.178;2023-12-28T06:37:10;100125.66;;;12.86;79.89
43420;BME280;29017;51.514;-0.178;2023-12-28T06:39:37;100121.59;;;12.83;79.78
43420;BME280;29017;51.514;-0.178;2023-12-28T06:42:04;100145.97;;;12.85;80.82
43420;BME280;29017;51.514;-0.178;2023-12-28T06:44:31;100143.16;;;12.87;81.44
43420;BME280;29017;51.514;-0.178;2023-12-28T06:46:57;100158.56;;;12.83;81.03
43420;BME280;29017;51.514;-0.178;2023-12-28T06:49:25;100153.44;;;12.82;81.59
43420;BME280;29017;51.514;-0.178;2023-12-28T06:51:52;100150.38;;;12.78;81.75
43420;BME280;29017;51.514;-0.178;2023-12-28T06:54:18;100152.00;;;12.79;82.03
43420;BME280;29017;51.514;-0.178;2023-12-28T06:56:46;100151.19;;;12.79;81.82
43420;BME280;29017;51.514;-0.178;2023-12-28T06:59:12;100156.81;;;12.76;82.06
43420;BME280;29017;51.514;-0.178;2023-12-28T07:01:40;100160.66;;;12.73;82.31
43420;BME280;29017;51.514;-0.178;2023-12-28T07:04:07;100163.63;;;12.70;82.58
43420;BME280;29017;51.514;-0.178;2023-12-28T07:06:43;100170.56;;;12.71;83.54
43420;BME280;29017;51.514;-0.178;2023-12-28T07:09:10;100173.75;;;12.67;83.64
43420;BME280;29017;51.514;-0.178;2023-12-28T07:11:37;100169.47;;;12.66;83.69
43420;BME280;29017;51.514;-0.178;2023-12-28T07:14:03;100171.28;;;12.65;84.79
43420;BME280;29017;51.514;-0.178;2023-12-28T07:16:30;100162.75;;;12.63;85.41
43420;BME280;29017;51.514;-0.178;2023-12-28T07:18:57;100167.38;;;12.61;85.16
43420;BME280;29017;51.514;-0.178;2023-12-28T07:21:25;100158.66;;;12.61;85.68
43420;BME280;29017;51.514;-0.178;2023-12-28T07:23:52;100159.63;;;12.60;86.60
43420;BME280;29017;51.514;-0.178;2023-12-28T07:26:19;100164.28;;;12.58;86.72
43420;BME280;29017;51.514;-0.178;2023-12-28T07:28:45;100158.38;;;12.56;86.78
43420;BME280;29017;51.514;-0.178;2023-12-28T07:31:24;100144.56;;;12.54;87.29
43420;BME280;29017;51.514;-0.178;2023-12-28T07:33:52;100155.28;;;12.52;87.47
43420;BME280;29017;51.514;-0.178;2023-12-28T07:36:19;100155.28;;;12.52;87.51
43420;BME280;29017;51.514;-0.178;2023-12-28T07:38:46;100162.56;;;12.50;87.52
43420;BME280;29017;51.514;-0.178;2023-12-28T07:41:13;100157.47;;;12.49;87.49
43420;BME280;29017;51.514;-0.178;2023-12-28T07:43:40;100166.84;;;12.51;87.72
43420;BME280;29017;51.514;-0.178;2023-12-28T07:46:07;100173.09;;;12.50;87.75
43420;BME280;29017;51.514;-0.178;2023-12-28T07:48:34;100171.13;;;12.52;87.51
43420;BME280;29017;51.514;-0.178;2023-12-28T07:51:04;100180.84;;;12.52;87.33
43420;BME280;29017;51.514;-0.178;2023-12-28T07:53:33;100185.13;;;12.53;86.87
43420;BME280;29017;51.514;-0.178;2023-12-28T07:56:00;100184.97;;;12.54;86.15
43420;BME280;29017;51.514;-0.178;2023-12-28T07:58:30;100178.88;;;12.54;86.10
43420;BME280;29017;51.514;-0.178;2023-12-28T08:00:57;100189.22;;;12.55;86.38
43420;BME280;29017;51.514;-0.178;2023-12-28T08:03:25;100184.75;;;12.56;85.64
43420;BME280;29017;51.514;-0.178;2023-12-28T08:05:52;100182.31;;;12.54;85.39
43420;BME280;29017;51.514;-0.178;2023-12-28T08:08:19;100187.41;;;12.56;85.77
43420;BME280;29017;51.514;-0.178;2023-12-28T08:10:46;100190.84;;;12.56;86.30
43420;BME280;29017;51.514;-0.178;2023-12-28T08:13:13;100184.59;;;12.57;85.37
43420;BME280;29017;51.514;-0.178;2023-12-28T08:15:40;100179.13;;;12.59;85.46
43420;BME280;29017;51.514;-0.178;2023-12-28T08:18:07;100198.59;;;12.58;85.42
43420;BME280;29017;51.514;-0.178;2023-12-28T08:20:34;100188.06;;;12.58;84.97
43420;BME280;29017;51.514;-0.178;2023-12-28T08:23:01;100191.69;;;12.57;85.35
43420;BME280;29017;51.514;-0.178;2023-12-28T08:25:42;100182.94;;;12.56;85.26
43420;BME280;29017;51.514;-0.178;2023-12-28T08:28:09;100202.06;;;12.58;84.91
43420;BME280;29017;51.514;-0.178;2023-12-28T08:30:37;100191.69;;;12.57;84.58
43420;BME280;29017;51.514;-0.178;2023-12-28T08:33:04;100203.72;;;12.59;85.13
43420;BME280;29017;51.514;-0.178;2023-12-28T08:35:31;100211.91;;;12.64;85.70
43420;BME280;29017;51.514;-0.178;2023-12-28T08:37:59;100196.84;;;12.65;84.48
43420;BME280;29017;51.514;-0.178;2023-12-28T08:40:28;100199.16;;;12.68;85.42
43420;BME280;29017;51.514;-0.178;2023-12-28T08:42:55;100200.59;;;12.70;84.53
43420;BME280;29017;51.514;-0.178;2023-12-28T08:45:26;100193.16;;;12.74;84.42
43420;BME280;29017;51.514;-0.178;2023-12-28T08:47:58;100193.31;;;12.72;84.00
43420;BME280;29017;51.514;-0.178;2023-12-28T08:50:26;100184.59;;;12.72;83.99
43420;BME280;29017;51.514;-0.178;2023-12-28T08:52:53;100196.25;;;12.77;83.89
43420;BME280;29017;51.514;-0.178;2023-12-28T08:55:21;100192.59;;;12.78;84.10
43420;BME280;29017;51.514;-0.178;2023-12-28T08:57:52;100197.16;;;12.84;83.49
43420;BME280;29017;51.514;-0.178;2023-12-28T09:00:21;100182.09;;;12.85;83.81
43420;BME280;29017;51.514;-0.178;2023-12-28T09:02:48;100182.09;;;12.85;83.68
43420;BME280;29017;51.514;-0.178;2023-12-28T09:05:15;100186.22;;;12.88;84.62
43420;BME280;29017;51.514;-0.178;2023-12-28T09:07:46;100193.31;;;12.87;84.46
43420;BME280;29017;51.514;-0.178;2023-12-28T09:10:15;100204.31;;;12.91;87.04
43420;BME280;29017;51.514;-0.178;2023-12-28T09:12:45;100201.06;;;12.89;87.83
43420;BME280;29017;51.514;-0.178;2023-12-28T09:15:12;100201.69;;;12.91;89.38
43420;BME280;29017;51.514;-0.178;2023-12-28T09:17:40;100228.09;;;12.91;90.22
43420;BME280;29017;51.514;-0.178;2023-12-28T09:20:15;100239.84;;;12.88;91.84
43420;BME280;29017;51.514;-0.178;2023-12-28T09:22:42;100238.94;;;12.81;93.74
43420;BME280;29017;51.514;-0.178;2023-12-28T09:25:09;100243.59;;;12.79;94.73
43420;BME280;29017;51.514;-0.178;2023-12-28T09:27:37;100217.09;;;12.72;95.72
43420;BME280;29017;51.514;-0.178;2023-12-28T09:30:07;100225.28;;;12.63;96.16
43420;BME280;29017;51.514;-0.178;2023-12-28T09:32:34;100231.28;;;12.57;97.00
43420;BME280;29017;51.514;-0.178;2023-12-28T09:35:02;100230.00;;;12.53;97.66
43420;BME280;29017;51.514;-0.178;2023-12-28T09:37:31;100224.28;;;12.49;97.40
43420;BME280;29017;51.514;-0.178;2023-12-28T09:39:59;100222.25;;;12.51;98.18
43420;BME280;29017;51.514;-0.178;2023-12-28T09:42:32;100217.78;;;12.52;98.27
43420;BME280;29017;51.514;-0.178;2023-12-28T09:45:02;100219.28;;;12.54;98.01
43420;BME280;29017;51.514;-0.178;2023-12-28T09:47:38;100218.06;;;12.57;98.62
43420;BME280;29017;51.514;-0.178;2023-12-28T09:50:08;100218.06;;;12.57;97.86
43420;BME280;29017;51.514;-0.178;2023-12-28T09:52:37;100233.53;;;12.60;97.36
43420;BME280;29017;51.514;-0.178;2023-12-28T09:55:05;100225.72;;;12.66;97.46
43420;BME280;29017;51.514;-0.178;2023-12-28T09:57:35;100220.38;;;12.74;97.27
43420;BME280;29017;51.514;-0.178;2023-12-28T10:00:03;100222.47;;;12.79;96.47
43420;BME280;29017;51.514;-0.178;2023-12-28T10:02:35;100228.03;;;12.84;95.16
43420;BME280;29017;51.514;-0.178;2023-12-28T10:05:06;100232.81;;;12.80;93.61
43420;BME280;29017;51.514;-0.178;2023-12-28T10:07:40;100234.63;;;12.80;93.11
43420;BME280;29017;51.514;-0.178;2023-12-28T10:10:16;100237.56;;;12.85;92.90
43420;BME280;29017;51.514;-0.178;2023-12-28T10:12:45;100234.75;;;12.86;92.57
43420;BME280;29017;51.514;-0.178;2023-12-28T10:15:13;100231.28;;;12.86;91.60
43420;BME280;29017;51.514;-0.178;2023-12-28T10:17:45;100227.47;;;12.89;90.86
43420;BME280;29017;51.514;-0.178;2023-12-28T10:20:18;100223.91;;;12.96;89.93
43420;BME280;29017;51.514;-0.178;2023-12-28T10:22:45;100232.84;;;12.95;88.67
43420;BME280;29017;51.514;-0.178;2023-12-28T10:25:15;100233.28;;;12.99;88.30
43420;BME280;29017;51.514;-0.178;2023-12-28T10:27:43;100231.09;;;13.02;88.64
43420;BME280;29017;51.514;-0.178;2023-12-28T10:30:17;100227.47;;;13.03;87.79
43420;BME280;29017;51.514;-0.178;2023-12-28T10:32:52;100236.47;;;13.09;87.11
43420;BME280;29017;51.514;-0.178;2023-12-28T10:35:20;100226.03;;;13.15;88.69
43420;BME280;29017;51.514;-0.178;2023-12-28T10:37:47;100225.47;;;13.20;86.69
43420;BME280;29017;51.514;-0.178;2023-12-28T10:40:20;100209.25;;;13.23;86.87
43420;BME280;29017;51.514;-0.178;2023-12-28T10:42:54;100210.31;;;13.28;87.28
43420;BME280;29017;51.514;-0.178;2023-12-28T10:45:34;100233.81;;;13.38;87.59
43420;BME280;29017;51.514;-0.178;2023-12-28T10:53:51;100204.50;;;13.54;84.43
43420;BME280;29017;51.514;-0.178;2023-12-28T10:58:45;100196.28;;;13.64;84.82
43420;BME280;29017;51.514;-0.178;2023-12-28T11:01:15;100194.88;;;13.68;84.04
43420;BME280;29017;51.514;-0.178;2023-12-28T11:03:45;100180.91;;;13.74;83.78
43420;BME280;29017;51.514;-0.178;2023-12-28T11:06:16;100189.91;;;13.80;83.20
43420;BME280;29017;51.514;-0.178;2023-12-28T11:08:44;100196.22;;;13.79;82.78
43420;BME280;29017;51.514;-0.178;2023-12-28T11:11:15;100195.88;;;13.88;82.57
43420;BME280;29017;51.514;-0.178;2023-12-28T11:13:42;100193.88;;;13.90;82.69
43420;BME280;29017;51.514;-0.178;2023-12-28T11:16:11;100192.06;;;13.91;83.88
43420;BME280;29017;51.514;-0.178;2023-12-28T11:18:40;100201.19;;;13.88;83.72
43420;BME280;29017;51.514;-0.178;2023-12-28T11:21:12;100187.34;;;13.86;84.02
43420;BME280;29017;51.514;-0.178;2023-12-28T11:23:39;100189.16;;;13.86;82.81
43420;BME280;29017;51.514;-0.178;2023-12-28T11:26:16;100180.75;;;13.76;84.63
43420;BME280;29017;51.514;-0.178;2023-12-28T11:28:44;100198.19;;;13.70;86.21
43420;BME280;29017;51.514;-0.178;2023-12-28T11:31:13;100168.19;;;13.63;88.00
43420;BME280;29017;51.514;-0.178;2023-12-28T11:33:46;100164.47;;;13.57;89.31
43420;BME280;29017;51.514;-0.178;2023-12-28T11:36:48;100158.69;;;13.47;90.27
43420;BME280;29017;51.514;-0.178;2023-12-28T11:39:08;100192.19;;;13.40;92.27
43420;BME280;29017;51.514;-0.178;2023-12-28T11:41:39;100163.03;;;13.34;93.56
43420;BME280;29017;51.514;-0.178;2023-12-28T11:44:09;100178.78;;;13.27;95.04
43420;BME280;29017;51.514;-0.178;2023-12-28T11:46:46;100179.19;;;13.24;97.00
43420;BME280;29017;51.514;-0.178;2023-12-28T11:49:13;100170.59;;;13.22;97.63
43420;BME280;29017;51.514;-0.178;2023-12-28T11:51:43;100167.91;;;13.15;97.13
43420;BME280;29017;51.514;-0.178;2023-12-28T11:54:21;100158.88;;;13.10;97.80
43420;BME280;29017;51.514;-0.178;2023-12-28T11:56:50;100158.97;;;13.02;98.62
43420;BME280;29017;51.514;-0.178;2023-12-28T11:59:18;100157.88;;;12.96;98.55
43420;BME280;29017;51.514;-0.178;2023-12-28T12:01:51;100154.88;;;12.99;98.39
43420;BME280;29017;51.514;-0.178;2023-12-28T12:04:20;100156.88;;;12.97;97.70
43420;BME280;29017;51.514;-0.178;2023-12-28T12:06:50;100156.25;;;12.95;97.87
43420;BME280;29017;51.514;-0.178;2023-12-28T12:09:19;100156.25;;;12.95;97.66
43420;BME280;29017;51.514;-0.178;2023-12-28T12:11:51;100150.50;;;12.92;97.62
43420;BME280;29017;51.514;-0.178;2023-12-28T12:14:19;100157.81;;;12.90;98.12
43420;BME280;29017;51.514;-0.178;2023-12-28T12:16:52;100153.88;;;12.85;97.53
43420;BME280;29017;51.514;-0.178;2023-12-28T12:19:25;100152.06;;;12.86;98.43
43420;BME280;29017;51.514;-0.178;2023-12-28T12:21:55;100149.06;;;12.89;99.24
43420;BME280;29017;51.514;-0.178;2023-12-28T12:24:23;100143.41;;;12.92;100.00
43420;BME280;29017;51.514;-0.178;2023-12-28T12:26:56;100129.03;;;12.95;100.00
43420;BME280;29017;51.514;-0.178;2023-12-28T12:29:26;100128.28;;;13.01;100.00
43420;BME280;29017;51.514;-0.178;2023-12-28T12:31:55;100117.91;;;12.99;100.00
43420;BME280;29017;51.514;-0.178;2023-12-28T12:34:23;100117.09;;;12.99;100.00
43420;BME280;29017;51.514;-0.178;2023-12-28T12:36:56;100111.38;;;12.95;100.00
43420;BME280;29017;51.514;-0.178;2023-12-28T12:39:26;100120.66;;;12.91;99.52
43420;BME280;29017;51.514;-0.178;2023-12-28T12:41:58;100105.19;;;12.88;100.00
43420;BME280;29017;51.514;-0.178;2023-12-28T12:44:26;100095.19;;;12.83;100.00
43420;BME280;29017;51.514;-0.178;2023-12-28T12:46:56;100096.38;;;12.81;100.00
43420;BME280;29017;51.514;-0.178;2023-12-28T12:49:23;100103.28;;;12.82;99.83
43420;BME280;29017;51.514;-0.178;2023-12-28T12:51:52;100096.63;;;12.86;99.53
43420;BME280;29017;51.514;-0.178;2023-12-28T12:54:19;100075.50;;;12.86;98.49
43420;BME280;29017;51.514;-0.178;2023-12-28T12:56:47;100080.03;;;12.92;98.78